La Bolsa, New Mexico
Current Conditions -  °F | °C
As of 11:15 PM on Sunday 21 Dec 2014 (Local Time) from KLAM Reporting Station
Clear Clear  
Wind Chill: 38°   Ceiling: Unl
Heat Index: 44°   Visibility: 10mi
Dew Point: 28°   Wind: 12mph
Humidity: 55%   Direction: 270°W
Pressure: 29.87"   Gusts: 39mph
Location:  36.1441°N, 105.996°W
Report Text: KLAM 220615Z AUTO 27010G34KT 250V330 10SM CLR 07/M02 A2987 RMK AO2 T00651020
Loading
Personal Weather Stations






























Interactive Weather Map New forecast layout! Learn more

10-Day Weather Forecast

Advertisements
Track Severe Weather on mobile